Time;durP1;ratioP1;P1;durP2;ratioP2;P2;SDS_P1;SDS_P2;PMS_P1;PMS_P2;Temp;Humidity;BMP_temperature;BMP_pressure;BME280_temperature;BME280_humidity;BME280_pressure;Samples;Min_cycle;Max_cycle;Signal;HPM_P1;HPM_P2
2022/04/01 00:02:05;;;;;;;8.60;4.33;;;0.80;99.90;;;;;;5067127;28;20039;-69
2022/04/01 00:04:31;;;;;;;6.23;4.70;;;0.90;99.90;;;;;;5068911;28;20291;-70
2022/04/01 00:06:57;;;;;;;8.63;5.00;;;0.90;99.90;;;;;;5086912;28;20100;-70
2022/04/01 00:09:24;;;;;;;7.33;4.23;;;0.90;99.90;;;;;;5087121;28;20490;-70
2022/04/01 00:11:51;;;;;;;6.97;4.37;;;0.90;99.90;;;;;;5086217;28;20513;-69
2022/04/01 00:14:17;;;;;;;5.47;4.10;;;0.90;99.90;;;;;;5069597;28;20039;-67
2022/04/01 00:16:43;;;;;;;5.87;3.90;;;0.90;99.90;;;;;;5069050;28;20138;-69
2022/04/01 00:19:09;;;;;;;7.67;4.13;;;0.90;99.90;;;;;;5086843;28;20155;-69
2022/04/01 00:21:37;;;;;;;7.00;3.93;;;0.90;99.90;;;;;;5085887;28;20051;-69
2022/04/01 00:24:03;;;;;;;6.40;3.83;;;0.90;99.90;;;;;;5070086;28;20050;-67
2022/04/01 00:26:29;;;;;;;7.13;4.03;;;0.90;99.90;;;;;;5084779;28;20054;-69
2022/04/01 00:28:55;;;;;;;7.17;3.70;;;0.90;99.90;;;;;;5086325;28;20032;-70
2022/04/01 00:31:21;;;;;;;5.67;3.20;;;0.90;99.90;;;;;;5036793;28;20112;-68
2022/04/01 00:33:47;;;;;;;6.93;3.60;;;0.90;99.90;;;;;;5085208;28;20484;-69
2022/04/01 00:36:14;;;;;;;5.60;3.67;;;0.90;99.90;;;;;;5069360;28;20040;-70
2022/04/01 00:38:41;;;;;;;4.83;3.53;;;1.00;99.90;;;;;;5068473;28;20055;-70
2022/04/01 00:41:06;;;;;;;5.40;3.27;;;0.90;99.90;;;;;;5085404;28;20051;-69
2022/04/01 00:43:34;;;;;;;5.93;2.83;;;1.00;99.90;;;;;;5101095;28;20387;-69
2022/04/01 00:46:00;;;;;;;5.87;3.27;;;1.00;99.90;;;;;;5069095;28;20116;-69
2022/04/01 00:48:27;;;;;;;5.70;2.83;;;1.10;99.90;;;;;;5086192;28;20388;-70
2022/04/01 00:50:54;;;;;;;5.97;3.00;;;1.10;99.90;;;;;;5068879;28;20031;-68
2022/04/01 00:53:22;;;;;;;4.50;2.80;;;1.10;99.90;;;;;;5084464;28;20051;-70
2022/04/01 00:55:49;;;;;;;4.83;3.00;;;1.20;99.90;;;;;;5066747;28;20440;-70
2022/04/01 00:58:16;;;;;;;5.30;2.97;;;1.20;99.90;;;;;;5084652;28;20051;-69
2022/04/01 01:00:42;;;;;;;6.93;3.00;;;1.20;99.90;;;;;;5084651;28;20063;-69
2022/04/01 01:03:08;;;;;;;5.10;2.57;;;1.20;99.90;;;;;;5085893;28;20039;-70
2022/04/01 01:05:34;;;;;;;4.50;2.43;;;1.20;99.90;;;;;;5067812;28;20092;-69
2022/04/01 01:08:05;;;;;;;4.70;3.10;;;1.30;99.90;;;;;;5086162;28;20047;-69
2022/04/01 01:10:31;;;;;;;5.40;2.80;;;1.30;99.90;;;;;;5086066;28;20062;-69
2022/04/01 01:12:57;;;;;;;4.20;3.00;;;1.30;99.90;;;;;;5069518;28;20051;-71
2022/04/01 01:15:25;;;;;;;5.33;2.70;;;1.30;99.90;;;;;;5086023;28;20039;-69
2022/04/01 01:17:51;;;;;;;5.87;3.50;;;1.40;99.90;;;;;;5067916;28;20040;-69
2022/04/01 01:20:17;;;;;;;5.30;2.73;;;1.40;99.90;;;;;;5058629;28;20104;-70
2022/04/01 01:22:47;;;;;;;5.50;2.97;;;1.40;99.90;;;;;;5083197;28;20047;-69
2022/04/01 01:25:15;;;;;;;4.97;3.22;;;1.40;99.90;;;;;;5067902;28;20040;-69
2022/04/01 01:27:43;;;;;;;4.03;2.80;;;1.40;99.90;;;;;;5067687;28;20044;-69
2022/04/01 01:30:09;;;;;;;5.87;2.83;;;1.40;99.90;;;;;;5085266;28;20100;-69
2022/04/01 01:32:35;;;;;;;4.20;2.77;;;1.40;99.90;;;;;;5080969;28;20044;-70
2022/04/01 01:35:03;;;;;;;4.67;2.63;;;1.40;99.90;;;;;;5075853;28;20116;-70
2022/04/01 01:37:29;;;;;;;3.77;2.20;;;1.40;99.90;;;;;;5073894;28;20060;-70
2022/04/01 01:39:55;;;;;;;5.17;2.30;;;1.50;99.90;;;;;;5061900;28;20090;-69
2022/04/01 01:42:21;;;;;;;3.90;2.70;;;1.60;99.90;;;;;;5045206;28;20045;-69
2022/04/01 01:44:47;;;;;;;4.60;3.13;;;1.60;99.90;;;;;;5062777;28;20044;-67
2022/04/01 01:47:13;;;;;;;6.90;3.50;;;1.50;99.90;;;;;;5075192;28;20038;-68
2022/04/01 01:54:42;;;;;;;4.80;2.97;;;1.50;99.90;;;;;;5051033;28;20051;-69
2022/04/01 01:55:13;;;;;;;4.37;2.97;;;1.50;99.90;;;;;;5046413;28;20359;-70
2022/04/01 01:57:39;;;;;;;4.97;3.00;;;1.50;99.90;;;;;;5063832;28;20868;-69
2022/04/01 02:00:10;;;;;;;6.27;2.67;;;1.40;99.90;;;;;;5044502;28;20040;-68
2022/04/01 02:02:38;;;;;;;4.27;3.20;;;1.30;99.90;;;;;;5025680;28;20049;-69
2022/04/01 02:05:07;;;;;;;4.87;2.73;;;1.40;99.90;;;;;;5028413;28;20075;-69
2022/04/01 02:07:33;;;;;;;4.73;3.10;;;1.30;99.90;;;;;;5045922;28;20055;-69
2022/04/01 02:09:59;;;;;;;4.23;2.70;;;1.20;99.90;;;;;;5045852;28;20037;-70
2022/04/01 02:12:30;;;;;;;4.00;2.53;;;1.40;99.90;;;;;;5062712;28;20042;-70
2022/04/01 02:14:56;;;;;;;5.70;3.10;;;1.40;99.90;;;;;;5045383;28;20149;-69
2022/04/01 02:17:22;;;;;;;5.87;2.97;;;1.30;99.90;;;;;;5063285;28;20084;-69
2022/04/01 02:19:51;;;;;;;6.20;3.37;;;1.40;99.90;;;;;;5045825;28;20055;-69
2022/04/01 02:22:17;;;;;;;4.43;2.60;;;1.40;99.90;;;;;;5045662;28;20048;-68
2022/04/01 02:24:43;;;;;;;4.47;2.83;;;1.40;99.90;;;;;;5060454;28;20041;-68
2022/04/01 02:27:09;;;;;;;4.53;3.27;;;1.50;99.90;;;;;;5062595;28;20052;-69
2022/04/01 02:29:35;;;;;;;7.20;3.00;;;1.40;99.90;;;;;;5051800;28;20101;-69
2022/04/01 02:32:01;;;;;;;5.00;3.60;;;1.50;99.90;;;;;;5069172;28;20036;-68
2022/04/01 02:34:27;;;;;;;5.93;3.00;;;1.40;99.90;;;;;;5092691;28;20590;-70
2022/04/01 02:36:56;;;;;;;6.10;3.33;;;1.40;99.90;;;;;;5093456;28;20055;-70
2022/04/01 02:39:22;;;;;;;6.73;3.50;;;1.40;99.90;;;;;;5092487;28;20478;-69
2022/04/01 02:41:48;;;;;;;6.27;2.90;;;1.40;99.90;;;;;;5093292;27;20100;-70
2022/04/01 02:44:14;;;;;;;5.23;3.27;;;1.40;99.90;;;;;;5076568;28;20097;-68
2022/04/01 02:46:43;;;;;;;6.10;2.97;;;1.40;99.90;;;;;;5127184;27;20391;-68
2022/04/01 02:49:10;;;;;;;5.33;3.03;;;1.40;99.90;;;;;;5092900;28;20104;-69
2022/04/01 02:51:39;;;;;;;5.23;2.80;;;1.40;99.90;;;;;;5092343;28;20051;-68
2022/04/01 02:54:06;;;;;;;6.27;3.27;;;1.30;99.90;;;;;;5091332;28;20036;-68
2022/04/01 02:56:34;;;;;;;5.93;3.13;;;1.30;99.90;;;;;;5126565;27;20062;-68
2022/04/01 02:59:01;;;;;;;4.07;2.60;;;1.30;99.90;;;;;;5126915;27;20485;-70
2022/04/01 03:01:30;;;;;;;6.53;3.30;;;1.30;99.90;;;;;;5109029;28;20044;-69
2022/04/01 03:03:56;;;;;;;4.87;2.80;;;1.30;99.90;;;;;;5127234;27;20568;-69
2022/04/01 03:06:26;;;;;;;4.57;3.07;;;1.40;99.90;;;;;;5075587;28;20078;-70
2022/04/01 03:08:51;;;;;;;5.07;2.70;;;1.50;99.90;;;;;;5058664;28;20051;-68
2022/04/01 03:11:19;;;;;;;5.80;2.87;;;1.50;99.90;;;;;;5092197;28;20054;-70
2022/04/01 03:13:45;;;;;;;6.23;2.33;;;1.50;99.90;;;;;;5058475;28;20069;-69
2022/04/01 03:16:12;;;;;;;4.70;2.80;;;1.50;99.90;;;;;;5073939;28;20040;-72
2022/04/01 03:18:40;;;;;;;4.97;2.20;;;1.50;99.90;;;;;;5090275;28;20044;-70
2022/04/01 03:21:10;;;;;;;5.23;2.50;;;1.50;99.90;;;;;;5091077;28;20035;-68
2022/04/01 03:23:41;;;;;;;5.65;2.30;;;1.60;99.90;;;;;;5073829;28;20138;-70
2022/04/01 03:26:07;;;;;;;4.90;2.20;;;1.60;99.90;;;;;;5089258;28;20836;-68
2022/04/01 03:28:34;;;;;;;3.80;2.30;;;1.60;99.90;;;;;;5072299;28;20055;-68
2022/04/01 03:31:03;;;;;;;5.50;2.73;;;1.60;99.90;;;;;;5072571;28;20366;-70
2022/04/01 03:33:36;;;;;;;4.07;2.30;;;1.70;99.90;;;;;;5073420;28;20070;-70
2022/04/01 03:36:03;;;;;;;5.77;2.37;;;1.70;99.90;;;;;;5072837;28;20050;-70
2022/04/01 03:38:29;;;;;;;3.97;2.40;;;1.70;99.90;;;;;;5090386;28;20051;-70
2022/04/01 03:40:56;;;;;;;6.87;2.27;;;1.60;99.90;;;;;;5068016;28;20054;-70
2022/04/01 03:43:24;;;;;;;5.53;2.30;;;1.60;99.90;;;;;;5087446;28;20048;-69
2022/04/01 03:45:52;;;;;;;5.97;2.20;;;1.50;99.90;;;;;;5069609;28;20036;-70
2022/04/01 03:48:31;;;;;;;3.83;1.90;;;1.60;99.90;;;;;;5071042;28;20518;-70
2022/04/01 03:50:57;;;;;;;5.50;2.43;;;1.60;99.90;;;;;;5068374;28;20541;-70
2022/04/01 03:53:29;;;;;;;4.20;2.17;;;1.70;99.90;;;;;;5069410;28;20044;-70
2022/04/01 03:55:59;;;;;;;4.50;2.30;;;1.60;99.90;;;;;;5086966;28;20035;-70
2022/04/01 03:58:34;;;;;;;4.63;2.10;;;1.60;99.90;;;;;;5088067;28;20047;-69
2022/04/01 04:01:03;;;;;;;4.00;2.33;;;1.60;99.90;;;;;;5084120;28;20088;-70
2022/04/01 04:03:31;;;;;;;5.80;2.50;;;1.60;99.90;;;;;;5089091;28;20051;-69
2022/04/01 04:05:58;;;;;;;5.90;2.10;;;1.70;99.90;;;;;;5088914;28;20157;-71
2022/04/01 04:08:24;;;;;;;4.53;2.20;;;1.70;99.90;;;;;;5089605;28;20052;-69
2022/04/01 04:10:52;;;;;;;5.27;2.83;;;1.70;99.90;;;;;;5072024;28;20039;-69
2022/04/01 04:13:20;;;;;;;6.67;2.97;;;1.70;99.90;;;;;;5071562;28;20044;-69
2022/04/01 04:16:00;;;;;;;4.03;2.10;;;1.80;99.90;;;;;;5088379;28;20047;-69
2022/04/01 04:18:36;;;;;;;4.90;2.10;;;1.70;99.90;;;;;;5088432;28;20073;-70
2022/04/01 04:21:30;;;;;;;6.27;2.30;;;1.70;99.90;;;;;;5106793;28;20052;-70
2022/04/01 04:24:01;;;;;;;4.43;2.40;;;1.70;99.90;;;;;;5088761;28;20036;-70
2022/04/01 04:26:32;;;;;;;7.23;2.70;;;1.70;99.90;;;;;;5086713;28;20044;-69
2022/04/01 04:29:13;;;;;;;4.70;2.53;;;1.70;99.90;;;;;;5071245;28;20047;-69
2022/04/01 04:31:52;;;;;;;4.73;2.50;;;1.70;99.90;;;;;;5087083;28;20056;-69
2022/04/01 04:34:22;;;;;;;5.03;2.40;;;1.70;99.90;;;;;;5070784;28;20074;-69
2022/04/01 04:36:51;;;;;;;5.10;2.33;;;1.70;99.90;;;;;;5070000;28;20104;-69
2022/04/01 04:39:31;;;;;;;4.73;2.30;;;1.70;99.90;;;;;;5053784;28;20056;-69
2022/04/01 04:41:58;;;;;;;4.40;2.17;;;1.80;99.90;;;;;;5070572;28;20192;-69
2022/04/01 04:44:28;;;;;;;4.37;2.13;;;1.70;99.90;;;;;;5104768;27;20120;-68
2022/04/01 04:46:59;;;;;;;5.90;2.10;;;1.70;99.90;;;;;;5086786;28;20518;-68
2022/04/01 04:49:29;;;;;;;5.37;2.10;;;1.70;99.90;;;;;;5069505;28;20874;-68
2022/04/01 04:51:57;;;;;;;4.30;2.00;;;1.80;99.90;;;;;;5121253;27;20040;-68
2022/04/01 04:54:25;;;;;;;4.87;2.30;;;1.70;99.90;;;;;;5119406;27;20102;-69
2022/04/01 04:56:53;;;;;;;5.53;1.83;;;1.80;99.90;;;;;;5087068;28;20134;-68
2022/04/01 04:59:20;;;;;;;4.87;2.30;;;1.80;99.90;;;;;;5087497;28;20058;-68
2022/04/01 05:02:05;;;;;;;3.63;1.70;;;1.80;99.90;;;;;;5085600;28;20055;-69
2022/04/01 05:04:47;;;;;;;3.67;1.87;;;1.80;99.90;;;;;;5066762;28;20130;-68
2022/04/01 05:07:37;;;;;;;4.73;1.70;;;1.80;99.90;;;;;;5066828;28;20101;-68
2022/04/01 05:10:08;;;;;;;4.80;1.77;;;1.80;99.90;;;;;;5066963;28;20193;-69
2022/04/01 05:12:56;;;;;;;6.03;1.90;;;1.80;99.90;;;;;;5086862;28;20566;-70
2022/04/01 05:15:34;;;;;;;4.60;2.00;;;1.90;99.90;;;;;;5070315;28;20051;-70
2022/04/01 05:18:21;;;;;;;6.10;1.93;;;1.90;99.90;;;;;;5086983;28;20051;-69
2022/04/01 05:21:18;;;;;;;4.23;1.70;;;1.90;99.90;;;;;;5086809;28;20043;-69
2022/04/01 05:24:00;;;;;;;5.30;1.90;;;2.00;99.90;;;;;;5069333;28;20047;-70
2022/04/01 05:26:40;;;;;;;5.23;1.90;;;2.00;99.90;;;;;;5085674;28;20134;-69
2022/04/01 05:29:31;;;;;;;5.05;1.70;;;1.90;99.90;;;;;;5087010;28;20055;-69
2022/04/01 05:32:05;;;;;;;;;;;1.90;99.90;;;;;;5086995;28;20078;-70
2022/04/01 05:34:38;;;;;;;3.00;1.53;;;2.00;99.90;;;;;;5069860;28;19919;-69
2022/04/01 05:37:05;;;;;;;5.10;1.87;;;1.90;99.90;;;;;;5085626;28;20577;-69
2022/04/01 05:39:34;;;;;;;4.87;1.80;;;2.00;99.90;;;;;;5102919;28;20603;-69
2022/04/01 05:42:00;;;;;;;6.63;2.80;;;1.90;99.90;;;;;;5087093;28;20055;-69
2022/04/01 05:44:26;;;;;;;6.70;1.93;;;2.00;99.90;;;;;;5087625;28;20126;-70
2022/04/01 05:46:54;;;;;;;4.97;2.03;;;1.90;99.90;;;;;;5085241;28;20040;-70
2022/04/01 05:49:21;;;;;;;7.17;2.37;;;1.90;99.90;;;;;;5069517;28;20043;-69
2022/04/01 05:51:47;;;;;;;6.17;1.70;;;2.00;99.90;;;;;;5082451;28;20115;-69
2022/04/01 05:54:16;;;;;;;5.37;1.90;;;2.00;99.90;;;;;;5096255;28;20122;-69
2022/04/01 05:56:46;;;;;;;4.63;1.80;;;2.00;99.90;;;;;;5074744;28;20047;-69
2022/04/01 05:59:14;;;;;;;6.20;2.00;;;2.00;99.90;;;;;;5080860;28;20451;-69
2022/04/01 06:01:54;;;;;;;4.07;1.67;;;2.00;99.90;;;;;;5063728;28;20056;-69
2022/04/01 06:04:29;;;;;;;5.32;1.65;;;2.10;99.90;;;;;;5087609;28;20096;-70
2022/04/01 06:07:20;;;;;;;5.23;1.97;;;2.10;99.90;;;;;;5117418;27;20048;-70
2022/04/01 06:09:48;;;;;;;4.28;1.90;;;2.10;99.90;;;;;;5085484;28;20138;-70
2022/04/01 06:12:38;;;;;;;4.80;1.70;;;2.10;99.90;;;;;;5085858;28;20043;-70
2022/04/01 06:15:14;;;;;;;4.25;2.08;;;2.20;99.90;;;;;;5085499;28;20036;-70
2022/04/01 06:18:04;;;;;;;6.50;2.17;;;2.20;99.90;;;;;;5067288;28;20490;-70
2022/04/01 06:20:33;;;;;;;5.28;1.60;;;2.20;99.90;;;;;;5073595;28;20063;-69
2022/04/01 06:23:06;;;;;;;3.92;1.85;;;2.30;99.90;;;;;;5075983;28;20142;-70
2022/04/01 06:25:38;;;;;;;5.90;1.83;;;2.30;99.90;;;;;;5067820;28;20043;-70
2022/04/01 06:28:16;;;;;;;5.90;1.93;;;2.30;99.90;;;;;;5083526;28;20051;-70
2022/04/01 06:30:44;;;;;;;5.93;1.90;;;2.30;99.90;;;;;;5100877;28;20367;-70
2022/04/01 06:33:48;;;;;;;6.50;1.87;;;2.30;99.90;;;;;;5080469;28;20056;-69
2022/04/01 06:36:21;;;;;;;4.77;1.97;;;2.40;99.90;;;;;;5069978;28;20135;-69
2022/04/01 06:39:00;;;;;;;4.40;2.00;;;2.40;99.90;;;;;;5074278;28;20067;-70
2022/04/01 06:41:35;;;;;;;4.67;1.67;;;2.40;99.90;;;;;;5058023;28;20140;-69
2022/04/01 06:44:01;;;;;;;5.90;2.00;;;2.50;99.90;;;;;;5051860;28;20049;-68
2022/04/01 06:46:27;;;;;;;6.07;2.10;;;2.50;99.90;;;;;;5075156;28;20043;-70
2022/04/01 06:48:53;;;;;;;3.47;1.90;;;2.60;99.90;;;;;;5041805;28;20045;-70
2022/04/01 06:51:19;;;;;;;6.80;2.33;;;2.60;99.90;;;;;;5077195;28;20521;-70
2022/04/01 06:53:45;;;;;;;7.37;2.20;;;2.60;99.90;;;;;;5077488;28;20070;-70
2022/04/01 06:56:11;;;;;;;4.33;1.93;;;2.70;99.90;;;;;;5081275;28;20048;-69
2022/04/01 06:58:37;;;;;;;4.97;2.00;;;2.70;99.90;;;;;;5080996;28;20047;-69
2022/04/01 07:01:04;;;;;;;3.90;2.07;;;2.70;99.90;;;;;;5065575;28;20043;-70
2022/04/01 07:03:30;;;;;;;5.77;2.20;;;2.70;99.90;;;;;;5082465;28;20113;-70
2022/04/01 07:05:58;;;;;;;5.47;2.00;;;2.70;99.90;;;;;;5066274;28;20041;-71
2022/04/01 07:08:24;;;;;;;4.13;1.70;;;2.70;99.90;;;;;;5083174;28;20044;-70
2022/04/01 07:10:50;;;;;;;4.30;1.97;;;2.70;99.90;;;;;;5065084;28;21113;-71
2022/04/01 07:13:16;;;;;;;3.87;1.90;;;2.80;99.90;;;;;;5065217;28;20048;-70
2022/04/01 07:15:43;;;;;;;4.80;1.97;;;2.80;99.90;;;;;;5067683;28;20051;-69
2022/04/01 07:18:09;;;;;;;5.27;2.10;;;2.80;99.90;;;;;;5059271;28;20044;-70
2022/04/01 07:20:35;;;;;;;5.00;2.03;;;2.80;99.90;;;;;;5059070;28;20077;-70
2022/04/01 07:23:01;;;;;;;4.43;1.67;;;2.80;99.90;;;;;;5045325;28;20059;-69
2022/04/01 07:25:27;;;;;;;5.90;2.00;;;2.80;99.90;;;;;;5063337;28;20506;-70
2022/04/01 07:27:54;;;;;;;3.50;1.70;;;2.80;99.90;;;;;;5062880;28;20051;-70
2022/04/01 07:30:20;;;;;;;5.83;2.33;;;2.80;99.90;;;;;;5076177;28;20502;-69
2022/04/01 07:32:50;;;;;;;5.73;2.27;;;2.90;99.90;;;;;;5057971;28;20048;-69
2022/04/01 07:35:17;;;;;;;4.40;1.70;;;2.90;99.90;;;;;;5084306;28;20055;-70
2022/04/01 07:37:43;;;;;;;4.10;1.80;;;2.90;99.90;;;;;;5067942;28;20071;-70
2022/04/01 07:40:10;;;;;;;3.97;1.87;;;2.90;99.90;;;;;;5059101;28;20040;-70
2022/04/01 07:42:38;;;;;;;4.33;2.10;;;3.10;99.90;;;;;;5074499;28;20048;-70
2022/04/01 07:45:04;;;;;;;6.30;1.90;;;3.00;99.90;;;;;;5064454;28;20062;-70
2022/04/01 07:47:32;;;;;;;5.10;2.20;;;2.90;99.90;;;;;;5064949;28;20056;-69
2022/04/01 07:50:01;;;;;;;5.30;1.83;;;2.90;99.90;;;;;;5082590;28;20537;-70
2022/04/01 07:52:29;;;;;;;5.53;2.17;;;3.00;99.90;;;;;;5073939;28;20123;-70
2022/04/01 07:54:56;;;;;;;5.50;2.33;;;2.90;99.90;;;;;;5081525;28;20047;-70
2022/04/01 07:57:22;;;;;;;3.13;2.03;;;2.80;99.90;;;;;;5060739;28;20032;-70
2022/04/01 07:59:48;;;;;;;4.83;2.33;;;2.80;99.90;;;;;;5060053;28;20048;-70
2022/04/01 08:02:15;;;;;;;3.73;2.30;;;2.80;99.90;;;;;;5055688;28;20118;-70
2022/04/01 08:04:41;;;;;;;4.80;2.23;;;2.60;99.90;;;;;;5075137;28;20438;-70
2022/04/01 08:07:07;;;;;;;5.37;2.23;;;2.70;99.90;;;;;;5078462;28;20036;-70
2022/04/01 08:09:33;;;;;;;6.20;2.30;;;2.60;99.90;;;;;;5058480;28;20052;-68
2022/04/01 08:12:00;;;;;;;4.50;2.47;;;2.70;99.90;;;;;;5073676;28;20399;-70
2022/04/01 08:14:27;;;;;;;5.63;2.77;;;2.60;99.90;;;;;;5060900;28;20499;-69
2022/04/01 08:16:53;;;;;;;4.20;2.43;;;2.60;99.90;;;;;;5072661;28;20530;-70
2022/04/01 08:19:19;;;;;;;4.23;2.73;;;2.50;99.90;;;;;;5058913;28;20036;-69
2022/04/01 08:21:45;;;;;;;6.33;2.97;;;2.50;99.90;;;;;;5077906;28;20162;-70
2022/04/01 08:24:16;;;;;;;7.00;3.47;;;2.50;99.90;;;;;;5072863;28;20070;-70
2022/04/01 08:26:41;;;;;;;4.73;3.47;;;2.40;99.90;;;;;;5063366;28;20136;-69
2022/04/01 08:29:07;;;;;;;5.30;3.00;;;2.50;99.90;;;;;;5078658;28;20035;-70
2022/04/01 08:31:37;;;;;;;7.33;3.83;;;2.60;99.90;;;;;;5078395;28;20055;-69
2022/04/01 08:34:03;;;;;;;7.45;3.85;;;2.60;99.90;;;;;;5060006;28;20059;-69
2022/04/01 08:36:30;;;;;;;6.20;4.00;;;2.70;99.90;;;;;;5075632;28;20453;-69
2022/04/01 08:38:56;;;;;;;10.70;4.90;;;2.70;99.90;;;;;;5056479;28;20311;-69
2022/04/01 08:41:22;;;;;;;8.03;4.70;;;2.70;99.90;;;;;;5078323;28;20044;-69
2022/04/01 08:43:51;;;;;;;7.80;5.50;;;2.70;99.90;;;;;;5059283;28;20502;-69
2022/04/01 08:46:17;;;;;;;7.23;5.27;;;2.70;99.90;;;;;;5063208;28;20043;-69
2022/04/01 08:48:44;;;;;;;5.13;4.60;;;2.70;99.90;;;;;;5080171;28;20621;-69
2022/04/01 08:51:10;;;;;;;7.40;5.53;;;2.70;99.90;;;;;;5064515;28;20040;-71
2022/04/01 08:53:38;;;;;;;7.73;6.03;;;2.80;99.90;;;;;;5060536;28;20048;-70
2022/04/01 08:56:05;;;;;;;7.73;5.97;;;2.70;99.90;;;;;;5083734;28;20040;-70
2022/04/01 08:58:33;;;;;;;9.00;6.37;;;2.70;99.90;;;;;;5081983;28;20416;-71
2022/04/01 09:01:02;;;;;;;8.73;6.50;;;2.70;99.90;;;;;;5077080;28;20051;-70
2022/04/01 09:03:28;;;;;;;8.43;6.07;;;2.70;99.90;;;;;;5080541;28;20055;-70
2022/04/01 09:05:58;;;;;;;8.37;6.77;;;2.70;99.90;;;;;;5060194;28;20427;-70
2022/04/01 09:08:30;;;;;;;10.23;6.50;;;2.80;99.90;;;;;;5076189;28;20086;-71
2022/04/01 09:10:58;;;;;;;7.77;6.50;;;2.80;99.90;;;;;;5077711;28;20516;-69
2022/04/01 09:13:30;;;;;;;8.03;6.30;;;2.90;99.90;;;;;;5074553;28;20455;-69
2022/04/01 09:15:57;;;;;;;8.50;6.40;;;2.90;99.90;;;;;;5074297;28;20097;-69
2022/04/01 09:18:41;;;;;;;10.00;7.50;;;2.80;99.90;;;;;;5096992;28;20040;-69
2022/04/01 09:21:12;;;;;;;10.07;7.20;;;2.90;99.90;;;;;;5092580;28;20059;-69
2022/04/01 09:23:39;;;;;;;8.67;7.23;;;2.90;99.90;;;;;;5056971;28;20143;-69
2022/04/01 09:26:06;;;;;;;10.00;7.50;;;2.90;99.90;;;;;;5060329;28;20047;-69
2022/04/01 09:28:35;;;;;;;8.47;6.90;;;3.00;99.90;;;;;;5077939;28;20428;-69
2022/04/01 09:31:12;;;;;;;8.63;6.80;;;3.10;99.90;;;;;;5075446;28;20052;-70
2022/04/01 09:33:47;;;;;;;8.87;7.37;;;3.10;99.90;;;;;;5074663;28;20040;-70
2022/04/01 09:36:36;;;;;;;8.63;6.63;;;3.10;99.90;;;;;;5064724;28;20123;-69
2022/04/01 09:39:06;;;;;;;9.30;7.03;;;3.30;99.90;;;;;;5074266;28;20363;-68
2022/04/01 09:41:43;;;;;;;8.73;7.60;;;3.30;99.90;;;;;;5058666;28;20843;-69
2022/04/01 09:44:15;;;;;;;9.07;7.20;;;3.30;99.90;;;;;;5072895;28;20127;-70
2022/04/01 09:46:52;;;;;;;7.87;6.90;;;3.40;99.90;;;;;;5059601;28;20048;-70
2022/04/01 09:49:32;;;;;;;8.33;6.77;;;3.30;99.90;;;;;;5075714;28;20040;-70
2022/04/01 09:51:57;;;;;;;10.93;7.33;;;3.30;99.90;;;;;;5075304;28;20048;-71
2022/04/01 09:54:24;;;;;;;10.93;7.50;;;3.30;99.90;;;;;;5076485;28;20035;-70
2022/04/01 09:56:54;;;;;;;7.80;7.00;;;3.40;99.90;;;;;;5052660;28;20086;-71
2022/04/01 09:59:21;;;;;;;;;;;3.40;99.90;;;;;;5110492;27;20040;-68
2022/04/01 10:01:47;;;;;;;7.73;6.87;;;3.30;99.90;;;;;;5094231;28;19928;-69
2022/04/01 10:04:14;;;;;;;9.27;6.90;;;3.30;99.90;;;;;;5061141;28;20105;-69
2022/04/01 10:06:41;;;;;;;8.23;6.53;;;3.30;99.90;;;;;;5081584;28;20044;-70
2022/04/01 10:09:12;;;;;;;9.37;6.30;;;3.40;99.90;;;;;;5061811;28;20058;-70
2022/04/01 10:11:39;;;;;;;7.47;5.50;;;3.50;99.90;;;;;;5079814;28;20131;-69
2022/04/01 10:14:26;;;;;;;7.27;5.03;;;3.40;99.90;;;;;;5078719;28;20159;-69
2022/04/01 10:16:58;;;;;;;9.00;5.73;;;3.40;99.90;;;;;;5062632;28;20040;-70
2022/04/01 10:19:32;;;;;;;8.00;5.90;;;3.40;99.90;;;;;;5079102;28;20490;-70
2022/04/01 10:21:59;;;;;;;7.93;5.80;;;3.50;99.90;;;;;;5075888;28;20044;-69
2022/04/01 10:24:49;;;;;;;6.40;5.10;;;3.40;99.90;;;;;;5080652;28;20613;-70
2022/04/01 10:27:15;;;;;;;8.05;5.43;;;3.50;99.90;;;;;;5080896;28;20048;-70
2022/04/01 10:29:44;;;;;;;6.97;5.20;;;3.70;99.90;;;;;;5060700;28;20048;-70
2022/04/01 10:32:26;;;;;;;7.50;5.60;;;3.70;99.90;;;;;;5057298;28;20072;-70
2022/04/01 10:34:54;;;;;;;7.87;5.80;;;3.70;99.90;;;;;;5078318;28;20092;-70
2022/04/01 10:37:25;;;;;;;6.77;4.63;;;3.70;99.90;;;;;;5063564;28;20079;-71
2022/04/01 10:40:00;;;;;;;5.73;4.30;;;3.70;99.90;;;;;;5080545;28;20100;-70
2022/04/01 10:42:32;;;;;;;5.67;4.57;;;3.80;99.90;;;;;;5082132;28;20075;-69
2022/04/01 10:45:00;;;;;;;5.80;4.30;;;3.90;99.90;;;;;;5116050;28;20035;-70
2022/04/01 10:53:45;;;;;;;6.33;3.70;;;4.00;99.90;;;;;;5119991;27;20084;-69
2022/04/01 10:56:23;;;;;;;5.67;2.93;;;4.00;99.90;;;;;;5085756;28;20093;-70
2022/04/01 10:59:06;;;;;;;3.77;2.50;;;4.20;99.90;;;;;;5081998;28;20054;-69
2022/04/01 11:01:34;;;;;;;5.33;2.83;;;4.10;99.90;;;;;;5067035;28;20047;-69
2022/04/01 11:04:20;;;;;;;4.27;2.90;;;4.10;99.90;;;;;;5079956;28;20277;-69
2022/04/01 11:07:03;;;;;;;6.40;3.30;;;3.90;99.90;;;;;;5071612;28;20344;-70
2022/04/01 11:09:41;;;;;;;6.50;3.50;;;3.90;99.90;;;;;;5077190;28;20116;-68
2022/04/01 11:12:16;;;;;;;6.60;3.90;;;3.80;99.90;;;;;;5083708;28;20036;-68
2022/04/01 11:14:58;;;;;;;6.77;4.17;;;3.80;99.90;;;;;;5081036;28;20055;-69
2022/04/01 11:17:34;;;;;;;6.80;3.50;;;3.80;99.90;;;;;;5101769;28;20031;-69
2022/04/01 11:20:31;;;;;;;6.23;4.03;;;4.00;99.90;;;;;;5079714;28;20047;-70
2022/04/01 11:22:59;;;;;;;5.40;4.00;;;3.90;99.90;;;;;;5063742;28;20047;-69
2022/04/01 11:25:25;;;;;;;5.93;3.60;;;3.80;99.90;;;;;;5113228;27;20112;-68
2022/04/01 11:28:10;;;;;;;5.83;3.50;;;3.60;99.90;;;;;;5075743;28;20043;-70
2022/04/01 11:31:04;;;;;;;6.17;3.27;;;3.40;99.90;;;;;;5082610;28;20355;-70
2022/04/01 11:33:30;;;;;;;5.33;3.07;;;3.40;99.90;;;;;;5083181;28;20135;-71
2022/04/01 11:35:57;;;;;;;5.10;2.77;;;3.50;99.90;;;;;;5085344;28;20126;-69
2022/04/01 11:38:25;;;;;;;5.43;2.80;;;3.60;99.90;;;;;;5068954;28;20579;-69
2022/04/01 11:40:54;;;;;;;5.43;2.80;;;3.60;99.90;;;;;;5068495;28;20047;-69
2022/04/01 11:43:21;;;;;;;3.87;2.63;;;3.60;99.90;;;;;;5085155;28;20031;-69
2022/04/01 11:46:04;;;;;;;4.30;2.37;;;3.50;99.90;;;;;;5083467;28;20032;-70
2022/04/01 11:48:32;;;;;;;6.33;3.10;;;3.50;99.90;;;;;;5067090;28;20371;-68
2022/04/01 11:51:00;;;;;;;4.70;2.63;;;3.40;99.90;;;;;;5084365;28;20043;-69
2022/04/01 11:53:35;;;;;;;4.67;2.40;;;3.50;99.90;;;;;;5078721;28;20587;-69
2022/04/01 11:56:03;;;;;;;5.73;2.60;;;3.50;99.90;;;;;;5082853;28;20067;-69
2022/04/01 11:58:35;;;;;;;4.77;2.73;;;3.60;99.90;;;;;;5082753;28;20048;-69
2022/04/01 12:01:01;;;;;;;5.73;2.50;;;3.70;99.90;;;;;;5079008;28;20035;-70
2022/04/01 12:03:27;;;;;;;7.40;2.80;;;3.70;99.90;;;;;;5081665;28;20488;-69
2022/04/01 12:08:41;;;;;;;4.27;2.30;;;3.70;99.90;;;;;;5092925;27;20126;-69
2022/04/01 12:08:46;;;;;;;5.20;2.90;;;3.70;99.90;;;;;;5075941;28;20067;-69
2022/04/01 12:11:12;;;;;;;4.20;2.33;;;3.80;99.90;;;;;;5055462;28;20412;-68
2022/04/01 12:13:55;;;;;;;4.03;2.47;;;3.90;99.90;;;;;;5062277;28;20082;-69
2022/04/01 12:16:24;;;;;;;4.63;2.30;;;3.80;99.90;;;;;;5075673;28;20057;-69
2022/04/01 12:18:50;;;;;;;4.27;2.23;;;4.00;99.90;;;;;;5089750;27;20535;-71
2022/04/01 12:21:21;;;;;;;5.43;2.90;;;4.00;99.90;;;;;;5065849;28;20043;-69
2022/04/01 12:23:49;;;;;;;4.10;2.70;;;3.90;99.90;;;;;;5062264;28;20035;-69
2022/04/01 12:26:24;;;;;;;5.30;2.43;;;3.90;99.90;;;;;;5076019;27;20502;-70
2022/04/01 12:28:50;;;;;;;7.00;2.50;;;3.80;99.90;;;;;;5073045;28;20051;-69
2022/04/01 12:31:25;;;;;;;5.53;2.90;;;3.80;99.90;;;;;;5076808;28;20132;-70
2022/04/01 12:33:56;;;;;;;5.60;2.87;;;3.90;99.90;;;;;;5061434;28;20577;-70
2022/04/01 12:36:35;;;;;;;5.37;2.93;;;3.80;99.90;;;;;;5064226;28;20443;-70
2022/04/01 12:39:05;;;;;;;7.53;3.50;;;3.80;99.90;;;;;;5109757;27;20035;-70
2022/04/01 12:41:31;;;;;;;4.68;3.30;;;3.80;99.90;;;;;;5079240;28;20043;-71
2022/04/01 12:44:00;;;;;;;5.40;4.13;;;3.80;99.90;;;;;;5043543;28;20099;-70
2022/04/01 12:46:34;;;;;;;6.13;3.57;;;3.80;99.90;;;;;;5076204;28;20131;-70
2022/04/01 12:49:11;;;;;;;5.07;3.10;;;3.90;99.90;;;;;;5093549;28;20047;-69
2022/04/01 12:51:42;;;;;;;7.13;3.10;;;4.00;99.90;;;;;;5080907;28;20490;-70
2022/04/01 12:54:09;;;;;;;;;;;4.00;99.90;;;;;;5074121;28;20436;-71
2022/04/01 12:56:37;;;;;;;6.57;3.00;;;4.10;99.90;;;;;;5113780;27;20361;-70
2022/04/01 12:59:23;;;;;;;5.23;3.17;;;4.30;99.90;;;;;;5083740;28;20379;-69
2022/04/01 13:01:57;;;;;;;6.03;3.13;;;4.40;99.90;;;;;;5099403;28;20046;-70
2022/04/01 13:04:23;;;;;;;4.53;2.80;;;4.60;99.90;;;;;;5067959;28;20047;-70
2022/04/01 13:07:12;;;;;;;5.13;2.80;;;4.70;99.90;;;;;;5084678;28;20428;-70
2022/04/01 13:10:01;;;;;;;5.87;2.70;;;4.70;99.90;;;;;;5081188;28;20058;-70
2022/04/01 13:12:37;;;;;;;6.70;2.60;;;4.80;99.90;;;;;;5063472;28;20524;-69
2022/04/01 13:15:12;;;;;;;6.13;2.93;;;4.80;99.90;;;;;;5085087;28;20044;-69
2022/04/01 13:17:49;;;;;;;4.83;2.50;;;4.80;99.90;;;;;;5084452;28;20047;-70
2022/04/01 13:20:17;;;;;;;4.23;2.50;;;4.80;99.90;;;;;;5085361;28;20421;-70
2022/04/01 13:22:44;;;;;;;7.37;2.50;;;4.80;99.90;;;;;;5084859;28;20051;-70
2022/04/01 13:25:15;;;;;;;5.40;2.77;;;4.80;99.90;;;;;;5083634;28;20092;-69